Terminal Aerodrome Forecast
Issued by NWS Melbourne, FL

Home | Current Version | Previous Version | Text Only | Print | Product List | Glossary On
Versions: 1 2 3 4 5 6 7 8 9 10 11 12
000
FTUS42 KMLB 300529
TAFMLB
TAF
KMLB 300529Z 3006/3106 VRB03KT P6SM FEW025 SCT250
     FM301400 VRB06KT P6SM SCT025
     FM301600 07007KT P6SM SCT035 SCT060
     FM301800 10011KT P6SM VCTS SCT040CB BKN250
     FM310000 14006KT P6SM FEW030 BKN120=

USA.gov is the U.S. government's official web portal to all federal, state and local government web resources and services.